sensor_id;sensor_type;location;lat;lon;timestamp;P1;durP1;ratioP1;P2;durP2;ratioP2
15913;SDS011;8055;51.930;8.840;2023-06-19T00:01:45;8.55;;;7.65;;
15913;SDS011;8055;51.930;8.840;2023-06-19T00:04:10;11.48;;;7.60;;
15913;SDS011;8055;51.930;8.840;2023-06-19T00:06:36;9.85;;;7.00;;
15913;SDS011;8055;51.930;8.840;2023-06-19T00:09:02;8.30;;;6.70;;
15913;SDS011;8055;51.930;8.840;2023-06-19T00:11:28;7.45;;;6.65;;
15913;SDS011;8055;51.930;8.840;2023-06-19T00:13:53;9.05;;;7.40;;
15913;SDS011;8055;51.930;8.840;2023-06-19T00:16:19;9.18;;;6.40;;
15913;SDS011;8055;51.930;8.840;2023-06-19T00:18:44;8.57;;;6.20;;
15913;SDS011;8055;51.930;8.840;2023-06-19T00:21:10;8.23;;;6.45;;
15913;SDS011;8055;51.930;8.840;2023-06-19T00:23:36;9.68;;;6.35;;
15913;SDS011;8055;51.930;8.840;2023-06-19T00:26:02;7.35;;;6.13;;
15913;SDS011;8055;51.930;8.840;2023-06-19T00:28:28;7.80;;;6.63;;
15913;SDS011;8055;51.930;8.840;2023-06-19T00:30:54;8.30;;;6.30;;
15913;SDS011;8055;51.930;8.840;2023-06-19T00:33:20;10.00;;;6.50;;
15913;SDS011;8055;51.930;8.840;2023-06-19T00:35:45;9.00;;;6.43;;
15913;SDS011;8055;51.930;8.840;2023-06-19T00:38:10;7.55;;;6.75;;
15913;SDS011;8055;51.930;8.840;2023-06-19T00:40:37;8.45;;;6.38;;
15913;SDS011;8055;51.930;8.840;2023-06-19T00:43:02;7.32;;;6.25;;
15913;SDS011;8055;51.930;8.840;2023-06-19T00:45:28;7.25;;;6.38;;
15913;SDS011;8055;51.930;8.840;2023-06-19T00:47:54;6.75;;;6.10;;
15913;SDS011;8055;51.930;8.840;2023-06-19T00:50:20;7.03;;;6.15;;
15913;SDS011;8055;51.930;8.840;2023-06-19T00:52:46;8.85;;;6.70;;
15913;SDS011;8055;51.930;8.840;2023-06-19T00:55:12;9.73;;;6.03;;
15913;SDS011;8055;51.930;8.840;2023-06-19T00:57:39;7.75;;;6.82;;
15913;SDS011;8055;51.930;8.840;2023-06-19T01:00:05;8.75;;;6.78;;
15913;SDS011;8055;51.930;8.840;2023-06-19T01:02:33;7.43;;;6.68;;
15913;SDS011;8055;51.930;8.840;2023-06-19T01:04:58;6.85;;;6.00;;
15913;SDS011;8055;51.930;8.840;2023-06-19T01:07:57;9.32;;;6.65;;
15913;SDS011;8055;51.930;8.840;2023-06-19T01:10:16;8.50;;;6.57;;
15913;SDS011;8055;51.930;8.840;2023-06-19T01:12:48;7.47;;;6.70;;
15913;SDS011;8055;51.930;8.840;2023-06-19T01:15:20;8.02;;;6.13;;
15913;SDS011;8055;51.930;8.840;2023-06-19T01:17:47;9.20;;;6.57;;
15913;SDS011;8055;51.930;8.840;2023-06-19T01:20:14;9.85;;;6.47;;
15913;SDS011;8055;51.930;8.840;2023-06-19T01:22:40;6.95;;;6.25;;
15913;SDS011;8055;51.930;8.840;2023-06-19T01:25:08;8.30;;;5.90;;
15913;SDS011;8055;51.930;8.840;2023-06-19T01:27:34;6.20;;;5.50;;
15913;SDS011;8055;51.930;8.840;2023-06-19T01:30:00;8.52;;;5.90;;
15913;SDS011;8055;51.930;8.840;2023-06-19T01:32:31;7.93;;;6.13;;
15913;SDS011;8055;51.930;8.840;2023-06-19T01:35:05;7.68;;;6.07;;
15913;SDS011;8055;51.930;8.840;2023-06-19T01:37:34;6.70;;;6.00;;
15913;SDS011;8055;51.930;8.840;2023-06-19T01:40:01;6.47;;;5.72;;
15913;SDS011;8055;51.930;8.840;2023-06-19T01:42:29;6.70;;;6.10;;
15913;SDS011;8055;51.930;8.840;2023-06-19T01:44:55;6.63;;;5.78;;
15913;SDS011;8055;51.930;8.840;2023-06-19T01:47:20;6.32;;;5.72;;
15913;SDS011;8055;51.930;8.840;2023-06-19T01:49:46;7.03;;;5.55;;
15913;SDS011;8055;51.930;8.840;2023-06-19T01:52:12;7.35;;;6.20;;
15913;SDS011;8055;51.930;8.840;2023-06-19T01:54:38;6.97;;;6.22;;
15913;SDS011;8055;51.930;8.840;2023-06-19T01:57:04;8.00;;;6.03;;
15913;SDS011;8055;51.930;8.840;2023-06-19T01:59:29;8.27;;;6.07;;
15913;SDS011;8055;51.930;8.840;2023-06-19T02:01:55;8.85;;;7.15;;
15913;SDS011;8055;51.930;8.840;2023-06-19T02:04:20;7.82;;;6.72;;
15913;SDS011;8055;51.930;8.840;2023-06-19T02:06:45;11.02;;;7.10;;
15913;SDS011;8055;51.930;8.840;2023-06-19T02:09:11;10.07;;;6.90;;
15913;SDS011;8055;51.930;8.840;2023-06-19T02:11:36;8.25;;;6.47;;
15913;SDS011;8055;51.930;8.840;2023-06-19T02:14:01;9.13;;;7.55;;
15913;SDS011;8055;51.930;8.840;2023-06-19T02:16:27;12.02;;;7.30;;
15913;SDS011;8055;51.930;8.840;2023-06-19T02:18:52;9.20;;;7.22;;
15913;SDS011;8055;51.930;8.840;2023-06-19T02:21:18;10.50;;;6.90;;
15913;SDS011;8055;51.930;8.840;2023-06-19T02:23:43;8.43;;;6.53;;
15913;SDS011;8055;51.930;8.840;2023-06-19T02:26:08;8.00;;;6.95;;
15913;SDS011;8055;51.930;8.840;2023-06-19T02:28:34;9.20;;;6.68;;
15913;SDS011;8055;51.930;8.840;2023-06-19T02:30:59;9.95;;;7.03;;
15913;SDS011;8055;51.930;8.840;2023-06-19T02:33:25;10.18;;;7.63;;
15913;SDS011;8055;51.930;8.840;2023-06-19T02:35:50;10.60;;;7.38;;
15913;SDS011;8055;51.930;8.840;2023-06-19T02:38:15;11.43;;;7.78;;
15913;SDS011;8055;51.930;8.840;2023-06-19T02:40:43;11.27;;;8.25;;
15913;SDS011;8055;51.930;8.840;2023-06-19T02:43:09;13.90;;;8.88;;
15913;SDS011;8055;51.930;8.840;2023-06-19T02:45:34;13.82;;;8.82;;
15913;SDS011;8055;51.930;8.840;2023-06-19T02:47:59;13.70;;;9.38;;
15913;SDS011;8055;51.930;8.840;2023-06-19T02:50:25;13.88;;;9.02;;
15913;SDS011;8055;51.930;8.840;2023-06-19T02:52:50;11.13;;;8.68;;
15913;SDS011;8055;51.930;8.840;2023-06-19T02:55:15;12.63;;;8.73;;
15913;SDS011;8055;51.930;8.840;2023-06-19T02:57:41;14.63;;;8.88;;
15913;SDS011;8055;51.930;8.840;2023-06-19T03:00:06;11.68;;;8.02;;
15913;SDS011;8055;51.930;8.840;2023-06-19T03:02:34;15.68;;;8.60;;
15913;SDS011;8055;51.930;8.840;2023-06-19T03:04:59;10.88;;;7.90;;
15913;SDS011;8055;51.930;8.840;2023-06-19T03:07:25;14.32;;;8.52;;
15913;SDS011;8055;51.930;8.840;2023-06-19T03:09:53;10.50;;;8.25;;
15913;SDS011;8055;51.930;8.840;2023-06-19T03:12:19;8.82;;;7.93;;
15913;SDS011;8055;51.930;8.840;2023-06-19T03:14:44;10.55;;;8.27;;
15913;SDS011;8055;51.930;8.840;2023-06-19T03:17:09;11.00;;;8.48;;
15913;SDS011;8055;51.930;8.840;2023-06-19T03:19:35;12.98;;;8.98;;
15913;SDS011;8055;51.930;8.840;2023-06-19T03:22:00;11.27;;;9.07;;
15913;SDS011;8055;51.930;8.840;2023-06-19T03:24:25;13.82;;;9.05;;
15913;SDS011;8055;51.930;8.840;2023-06-19T03:26:51;14.02;;;9.02;;
15913;SDS011;8055;51.930;8.840;2023-06-19T03:29:16;15.77;;;8.30;;
15913;SDS011;8055;51.930;8.840;2023-06-19T03:31:42;18.95;;;8.60;;
15913;SDS011;8055;51.930;8.840;2023-06-19T03:34:07;17.20;;;9.45;;
15913;SDS011;8055;51.930;8.840;2023-06-19T03:36:32;11.52;;;8.60;;
15913;SDS011;8055;51.930;8.840;2023-06-19T03:38:58;13.13;;;9.13;;
15913;SDS011;8055;51.930;8.840;2023-06-19T03:41:23;12.57;;;9.88;;
15913;SDS011;8055;51.930;8.840;2023-06-19T03:43:49;14.23;;;8.55;;
15913;SDS011;8055;51.930;8.840;2023-06-19T03:46:14;14.30;;;8.43;;
15913;SDS011;8055;51.930;8.840;2023-06-19T03:48:39;11.27;;;8.10;;
15913;SDS011;8055;51.930;8.840;2023-06-19T03:51:05;9.93;;;7.97;;
15913;SDS011;8055;51.930;8.840;2023-06-19T03:53:30;10.38;;;7.57;;
15913;SDS011;8055;51.930;8.840;2023-06-19T03:55:55;9.02;;;7.05;;
15913;SDS011;8055;51.930;8.840;2023-06-19T03:58:21;9.52;;;6.97;;
15913;SDS011;8055;51.930;8.840;2023-06-19T04:00:46;8.00;;;6.18;;
15913;SDS011;8055;51.930;8.840;2023-06-19T04:03:11;10.70;;;7.05;;
15913;SDS011;8055;51.930;8.840;2023-06-19T04:05:37;7.10;;;6.40;;
15913;SDS011;8055;51.930;8.840;2023-06-19T04:08:04;8.63;;;6.25;;
15913;SDS011;8055;51.930;8.840;2023-06-19T04:10:29;9.40;;;6.22;;
15913;SDS011;8055;51.930;8.840;2023-06-19T04:12:54;7.43;;;6.13;;
15913;SDS011;8055;51.930;8.840;2023-06-19T04:15:20;7.82;;;6.57;;
15913;SDS011;8055;51.930;8.840;2023-06-19T04:17:46;8.88;;;6.70;;
15913;SDS011;8055;51.930;8.840;2023-06-19T04:20:11;6.88;;;5.95;;
15913;SDS011;8055;51.930;8.840;2023-06-19T04:22:37;6.80;;;6.10;;
15913;SDS011;8055;51.930;8.840;2023-06-19T04:25:04;8.70;;;6.18;;
15913;SDS011;8055;51.930;8.840;2023-06-19T04:27:31;6.72;;;5.93;;
15913;SDS011;8055;51.930;8.840;2023-06-19T04:29:56;7.82;;;6.57;;
15913;SDS011;8055;51.930;8.840;2023-06-19T04:32:22;6.57;;;5.65;;
15913;SDS011;8055;51.930;8.840;2023-06-19T04:34:47;10.18;;;6.53;;
15913;SDS011;8055;51.930;8.840;2023-06-19T04:37:12;7.43;;;6.35;;
15913;SDS011;8055;51.930;8.840;2023-06-19T04:39:38;7.45;;;6.68;;
15913;SDS011;8055;51.930;8.840;2023-06-19T04:42:03;8.75;;;5.95;;
15913;SDS011;8055;51.930;8.840;2023-06-19T04:44:29;8.45;;;6.47;;
15913;SDS011;8055;51.930;8.840;2023-06-19T04:46:58;7.25;;;6.30;;
15913;SDS011;8055;51.930;8.840;2023-06-19T04:49:29;11.45;;;6.57;;
15913;SDS011;8055;51.930;8.840;2023-06-19T04:51:55;6.50;;;5.90;;
15913;SDS011;8055;51.930;8.840;2023-06-19T04:54:24;7.13;;;6.43;;
15913;SDS011;8055;51.930;8.840;2023-06-19T04:56:50;7.55;;;6.75;;
15913;SDS011;8055;51.930;8.840;2023-06-19T04:59:16;9.52;;;5.95;;
15913;SDS011;8055;51.930;8.840;2023-06-19T05:01:43;9.93;;;6.75;;
15913;SDS011;8055;51.930;8.840;2023-06-19T05:04:09;8.10;;;6.20;;
15913;SDS011;8055;51.930;8.840;2023-06-19T05:06:36;7.72;;;6.85;;
15913;SDS011;8055;51.930;8.840;2023-06-19T05:09:02;10.25;;;5.95;;
15913;SDS011;8055;51.930;8.840;2023-06-19T05:11:27;6.88;;;6.00;;
15913;SDS011;8055;51.930;8.840;2023-06-19T05:13:53;6.60;;;6.00;;
15913;SDS011;8055;51.930;8.840;2023-06-19T05:16:18;7.55;;;6.22;;
15913;SDS011;8055;51.930;8.840;2023-06-19T05:18:44;7.00;;;6.20;;
15913;SDS011;8055;51.930;8.840;2023-06-19T05:21:10;7.60;;;6.40;;
15913;SDS011;8055;51.930;8.840;2023-06-19T05:23:36;6.97;;;6.25;;
15913;SDS011;8055;51.930;8.840;2023-06-19T05:26:03;8.68;;;6.35;;
15913;SDS011;8055;51.930;8.840;2023-06-19T05:28:28;8.50;;;6.47;;
15913;SDS011;8055;51.930;8.840;2023-06-19T05:30:54;7.78;;;6.10;;
15913;SDS011;8055;51.930;8.840;2023-06-19T05:33:19;7.30;;;6.50;;
15913;SDS011;8055;51.930;8.840;2023-06-19T05:35:44;8.07;;;6.30;;
15913;SDS011;8055;51.930;8.840;2023-06-19T05:38:16;7.60;;;6.20;;
15913;SDS011;8055;51.930;8.840;2023-06-19T05:40:42;7.53;;;6.68;;
15913;SDS011;8055;51.930;8.840;2023-06-19T05:43:07;8.98;;;6.28;;
15913;SDS011;8055;51.930;8.840;2023-06-19T05:45:32;7.15;;;5.47;;
15913;SDS011;8055;51.930;8.840;2023-06-19T05:47:58;8.43;;;6.68;;
15913;SDS011;8055;51.930;8.840;2023-06-19T05:50:23;7.60;;;5.47;;
15913;SDS011;8055;51.930;8.840;2023-06-19T05:52:49;10.43;;;5.85;;
15913;SDS011;8055;51.930;8.840;2023-06-19T05:55:14;7.70;;;5.47;;
15913;SDS011;8055;51.930;8.840;2023-06-19T05:57:39;7.28;;;4.70;;
15913;SDS011;8055;51.930;8.840;2023-06-19T06:00:05;5.45;;;4.30;;
15913;SDS011;8055;51.930;8.840;2023-06-19T06:02:32;7.40;;;5.10;;
15913;SDS011;8055;51.930;8.840;2023-06-19T06:04:57;5.82;;;4.70;;
15913;SDS011;8055;51.930;8.840;2023-06-19T06:07:22;8.15;;;4.75;;
15913;SDS011;8055;51.930;8.840;2023-06-19T06:09:48;6.55;;;4.15;;
15913;SDS011;8055;51.930;8.840;2023-06-19T06:12:13;9.45;;;4.50;;
15913;SDS011;8055;51.930;8.840;2023-06-19T06:14:40;8.15;;;4.30;;
15913;SDS011;8055;51.930;8.840;2023-06-19T06:17:06;5.55;;;4.63;;
15913;SDS011;8055;51.930;8.840;2023-06-19T06:19:31;6.43;;;4.07;;
15913;SDS011;8055;51.930;8.840;2023-06-19T06:21:57;4.80;;;4.30;;
15913;SDS011;8055;51.930;8.840;2023-06-19T06:24:22;5.93;;;4.75;;
15913;SDS011;8055;51.930;8.840;2023-06-19T06:26:47;4.57;;;4.18;;
15913;SDS011;8055;51.930;8.840;2023-06-19T06:29:13;6.45;;;4.45;;
15913;SDS011;8055;51.930;8.840;2023-06-19T06:31:38;8.40;;;4.30;;
15913;SDS011;8055;51.930;8.840;2023-06-19T06:34:04;8.40;;;4.70;;
15913;SDS011;8055;51.930;8.840;2023-06-19T06:36:30;5.65;;;4.20;;
15913;SDS011;8055;51.930;8.840;2023-06-19T06:38:55;4.63;;;4.18;;
15913;SDS011;8055;51.930;8.840;2023-06-19T06:41:20;6.07;;;4.10;;
15913;SDS011;8055;51.930;8.840;2023-06-19T06:43:46;6.60;;;4.32;;
15913;SDS011;8055;51.930;8.840;2023-06-19T06:46:11;6.32;;;3.88;;
15913;SDS011;8055;51.930;8.840;2023-06-19T06:48:37;5.75;;;4.18;;
15913;SDS011;8055;51.930;8.840;2023-06-19T06:51:02;9.38;;;4.38;;
15913;SDS011;8055;51.930;8.840;2023-06-19T06:53:28;5.18;;;3.75;;
15913;SDS011;8055;51.930;8.840;2023-06-19T06:55:57;4.75;;;4.30;;
15913;SDS011;8055;51.930;8.840;2023-06-19T06:58:24;5.55;;;4.43;;
15913;SDS011;8055;51.930;8.840;2023-06-19T07:00:49;6.65;;;4.25;;
15913;SDS011;8055;51.930;8.840;2023-06-19T07:03:17;5.55;;;4.40;;
15913;SDS011;8055;51.930;8.840;2023-06-19T07:05:43;5.18;;;4.53;;
15913;SDS011;8055;51.930;8.840;2023-06-19T07:08:09;5.72;;;3.85;;
15913;SDS011;8055;51.930;8.840;2023-06-19T07:10:34;7.65;;;4.57;;
15913;SDS011;8055;51.930;8.840;2023-06-19T07:13:00;6.25;;;3.97;;
15913;SDS011;8055;51.930;8.840;2023-06-19T07:15:25;5.97;;;3.83;;
15913;SDS011;8055;51.930;8.840;2023-06-19T07:17:51;6.95;;;4.20;;
15913;SDS011;8055;51.930;8.840;2023-06-19T07:20:16;6.30;;;4.38;;
15913;SDS011;8055;51.930;8.840;2023-06-19T07:22:42;6.82;;;4.60;;
15913;SDS011;8055;51.930;8.840;2023-06-19T07:25:09;6.40;;;4.38;;
15913;SDS011;8055;51.930;8.840;2023-06-19T07:27:36;4.90;;;4.03;;
15913;SDS011;8055;51.930;8.840;2023-06-19T07:30:01;6.22;;;4.55;;
15913;SDS011;8055;51.930;8.840;2023-06-19T07:32:27;7.15;;;4.75;;
15913;SDS011;8055;51.930;8.840;2023-06-19T07:34:52;6.65;;;5.18;;
15913;SDS011;8055;51.930;8.840;2023-06-19T07:37:18;6.93;;;4.72;;
15913;SDS011;8055;51.930;8.840;2023-06-19T07:39:47;6.85;;;4.75;;
15913;SDS011;8055;51.930;8.840;2023-06-19T07:42:13;5.68;;;4.95;;
15913;SDS011;8055;51.930;8.840;2023-06-19T07:44:40;7.03;;;5.18;;
15913;SDS011;8055;51.930;8.840;2023-06-19T07:47:06;6.15;;;5.20;;
15913;SDS011;8055;51.930;8.840;2023-06-19T07:49:32;8.18;;;4.93;;
15913;SDS011;8055;51.930;8.840;2023-06-19T07:51:57;5.15;;;4.65;;
15913;SDS011;8055;51.930;8.840;2023-06-19T07:54:22;8.10;;;5.20;;
15913;SDS011;8055;51.930;8.840;2023-06-19T07:56:48;7.43;;;5.43;;
15913;SDS011;8055;51.930;8.840;2023-06-19T07:59:13;5.93;;;4.82;;
15913;SDS011;8055;51.930;8.840;2023-06-19T08:01:39;5.88;;;5.00;;
15913;SDS011;8055;51.930;8.840;2023-06-19T08:04:04;7.82;;;4.75;;
15913;SDS011;8055;51.930;8.840;2023-06-19T08:06:30;7.68;;;4.97;;
15913;SDS011;8055;51.930;8.840;2023-06-19T08:08:56;5.88;;;4.50;;
15913;SDS011;8055;51.930;8.840;2023-06-19T08:11:21;6.63;;;4.70;;
15913;SDS011;8055;51.930;8.840;2023-06-19T08:13:46;6.10;;;4.10;;
15913;SDS011;8055;51.930;8.840;2023-06-19T08:16:12;5.38;;;4.88;;
15913;SDS011;8055;51.930;8.840;2023-06-19T08:18:38;4.55;;;3.97;;
15913;SDS011;8055;51.930;8.840;2023-06-19T08:21:03;5.28;;;4.15;;
15913;SDS011;8055;51.930;8.840;2023-06-19T08:23:29;5.45;;;4.47;;
15913;SDS011;8055;51.930;8.840;2023-06-19T08:25:54;8.70;;;4.70;;
15913;SDS011;8055;51.930;8.840;2023-06-19T08:28:20;5.28;;;3.67;;
15913;SDS011;8055;51.930;8.840;2023-06-19T08:30:45;7.30;;;3.58;;
15913;SDS011;8055;51.930;8.840;2023-06-19T08:33:11;3.90;;;3.40;;
15913;SDS011;8055;51.930;8.840;2023-06-19T08:35:37;6.93;;;3.47;;
15913;SDS011;8055;51.930;8.840;2023-06-19T08:38:03;3.13;;;2.83;;
15913;SDS011;8055;51.930;8.840;2023-06-19T08:40:28;5.78;;;2.40;;
15913;SDS011;8055;51.930;8.840;2023-06-19T08:42:54;2.47;;;2.20;;
15913;SDS011;8055;51.930;8.840;2023-06-19T08:45:20;3.60;;;2.45;;
15913;SDS011;8055;51.930;8.840;2023-06-19T08:47:47;2.67;;;2.28;;
15913;SDS011;8055;51.930;8.840;2023-06-19T08:50:13;2.95;;;2.65;;
15913;SDS011;8055;51.930;8.840;2023-06-19T08:52:39;2.33;;;2.10;;
15913;SDS011;8055;51.930;8.840;2023-06-19T08:55:04;4.43;;;2.35;;
15913;SDS011;8055;51.930;8.840;2023-06-19T08:57:34;2.95;;;2.20;;
15913;SDS011;8055;51.930;8.840;2023-06-19T09:00:03;4.57;;;2.00;;
15913;SDS011;8055;51.930;8.840;2023-06-19T09:02:46;2.65;;;2.45;;
15913;SDS011;8055;51.930;8.840;2023-06-19T09:05:12;3.85;;;2.35;;
15913;SDS011;8055;51.930;8.840;2023-06-19T09:07:40;3.72;;;2.08;;
15913;SDS011;8055;51.930;8.840;2023-06-19T09:10:12;3.15;;;2.00;;
15913;SDS011;8055;51.930;8.840;2023-06-19T09:12:41;3.40;;;1.85;;
15913;SDS011;8055;51.930;8.840;2023-06-19T09:15:14;3.25;;;1.75;;
15913;SDS011;8055;51.930;8.840;2023-06-19T09:17:40;2.00;;;1.73;;
15913;SDS011;8055;51.930;8.840;2023-06-19T09:20:06;3.47;;;1.95;;
15913;SDS011;8055;51.930;8.840;2023-06-19T09:22:32;2.30;;;1.73;;
15913;SDS011;8055;51.930;8.840;2023-06-19T09:25:01;4.00;;;1.90;;
15913;SDS011;8055;51.930;8.840;2023-06-19T09:27:31;2.10;;;1.90;;
15913;SDS011;8055;51.930;8.840;2023-06-19T09:29:58;2.70;;;2.17;;
15913;SDS011;8055;51.930;8.840;2023-06-19T09:32:27;3.88;;;2.65;;
15913;SDS011;8055;51.930;8.840;2023-06-19T09:34:57;3.00;;;2.38;;
15913;SDS011;8055;51.930;8.840;2023-06-19T09:37:26;3.38;;;2.60;;
15913;SDS011;8055;51.930;8.840;2023-06-19T09:39:56;3.20;;;2.42;;
15913;SDS011;8055;51.930;8.840;2023-06-19T09:42:26;5.20;;;2.70;;
15913;SDS011;8055;51.930;8.840;2023-06-19T09:44:55;4.80;;;2.70;;
15913;SDS011;8055;51.930;8.840;2023-06-19T09:47:47;4.03;;;2.55;;
15913;SDS011;8055;51.930;8.840;2023-06-19T09:50:17;5.18;;;2.40;;
15913;SDS011;8055;51.930;8.840;2023-06-19T09:52:43;5.13;;;2.22;;
15913;SDS011;8055;51.930;8.840;2023-06-19T09:55:10;3.97;;;2.35;;
15913;SDS011;8055;51.930;8.840;2023-06-19T09:57:38;5.30;;;2.17;;
15913;SDS011;8055;51.930;8.840;2023-06-19T10:00:05;4.53;;;2.03;;
15913;SDS011;8055;51.930;8.840;2023-06-19T10:02:41;3.42;;;2.05;;
15913;SDS011;8055;51.930;8.840;2023-06-19T10:05:08;2.78;;;2.20;;
15913;SDS011;8055;51.930;8.840;2023-06-19T10:07:36;2.33;;;2.10;;
15913;SDS011;8055;51.930;8.840;2023-06-19T10:10:23;2.65;;;2.22;;
15913;SDS011;8055;51.930;8.840;2023-06-19T10:12:49;2.88;;;2.00;;
15913;SDS011;8055;51.930;8.840;2023-06-19T10:15:16;3.35;;;2.00;;
15913;SDS011;8055;51.930;8.840;2023-06-19T10:17:43;2.47;;;2.28;;
15913;SDS011;8055;51.930;8.840;2023-06-19T10:20:20;2.25;;;1.80;;
15913;SDS011;8055;51.930;8.840;2023-06-19T10:22:58;2.33;;;2.13;;
15913;SDS011;8055;51.930;8.840;2023-06-19T10:25:24;2.88;;;1.95;;
15913;SDS011;8055;51.930;8.840;2023-06-19T10:27:52;4.93;;;2.25;;
15913;SDS011;8055;51.930;8.840;2023-06-19T10:30:18;3.13;;;2.63;;
15913;SDS011;8055;51.930;8.840;2023-06-19T10:32:45;5.30;;;2.17;;
15913;SDS011;8055;51.930;8.840;2023-06-19T10:35:14;3.22;;;2.42;;
15913;SDS011;8055;51.930;8.840;2023-06-19T10:37:40;3.25;;;2.08;;
15913;SDS011;8055;51.930;8.840;2023-06-19T10:40:06;3.83;;;2.10;;
15913;SDS011;8055;51.930;8.840;2023-06-19T10:42:35;4.32;;;2.15;;
15913;SDS011;8055;51.930;8.840;2023-06-19T10:45:05;2.28;;;2.00;;
15913;SDS011;8055;51.930;8.840;2023-06-19T10:47:35;3.28;;;2.00;;
15913;SDS011;8055;51.930;8.840;2023-06-19T10:50:02;4.07;;;1.90;;
15913;SDS011;8055;51.930;8.840;2023-06-19T10:52:28;1.95;;;1.77;;
15913;SDS011;8055;51.930;8.840;2023-06-19T10:54:55;2.50;;;1.80;;
15913;SDS011;8055;51.930;8.840;2023-06-19T10:57:27;3.15;;;1.98;;
15913;SDS011;8055;51.930;8.840;2023-06-19T10:59:54;4.50;;;2.15;;
15913;SDS011;8055;51.930;8.840;2023-06-19T11:02:19;3.92;;;1.63;;
15913;SDS011;8055;51.930;8.840;2023-06-19T11:04:46;2.33;;;1.98;;
15913;SDS011;8055;51.930;8.840;2023-06-19T11:07:11;3.95;;;1.98;;
15913;SDS011;8055;51.930;8.840;2023-06-19T11:09:37;4.43;;;1.73;;
15913;SDS011;8055;51.930;8.840;2023-06-19T11:12:02;2.88;;;2.08;;
15913;SDS011;8055;51.930;8.840;2023-06-19T11:14:31;2.67;;;2.20;;
15913;SDS011;8055;51.930;8.840;2023-06-19T11:16:57;2.50;;;2.30;;
15913;SDS011;8055;51.930;8.840;2023-06-19T11:19:22;4.72;;;2.67;;
15913;SDS011;8055;51.930;8.840;2023-06-19T11:21:57;3.88;;;2.40;;
15913;SDS011;8055;51.930;8.840;2023-06-19T11:24:22;8.52;;;2.55;;
15913;SDS011;8055;51.930;8.840;2023-06-19T11:26:49;3.70;;;2.42;;
15913;SDS011;8055;51.930;8.840;2023-06-19T11:29:19;2.67;;;2.28;;
15913;SDS011;8055;51.930;8.840;2023-06-19T11:31:45;3.88;;;2.28;;
15913;SDS011;8055;51.930;8.840;2023-06-19T11:34:12;3.83;;;2.72;;
15913;SDS011;8055;51.930;8.840;2023-06-19T11:36:38;2.55;;;2.30;;
15913;SDS011;8055;51.930;8.840;2023-06-19T11:39:08;2.47;;;2.28;;
15913;SDS011;8055;51.930;8.840;2023-06-19T11:41:35;4.10;;;2.40;;
15913;SDS011;8055;51.930;8.840;2023-06-19T11:44:04;3.60;;;2.30;;
15913;SDS011;8055;51.930;8.840;2023-06-19T11:46:32;2.85;;;2.63;;
15913;SDS011;8055;51.930;8.840;2023-06-19T11:49:09;2.92;;;2.63;;
15913;SDS011;8055;51.930;8.840;2023-06-19T11:51:38;4.40;;;2.90;;
15913;SDS011;8055;51.930;8.840;2023-06-19T11:54:08;5.30;;;2.78;;
15913;SDS011;8055;51.930;8.840;2023-06-19T11:56:34;3.17;;;2.15;;
15913;SDS011;8055;51.930;8.840;2023-06-19T11:59:03;5.47;;;2.40;;
15913;SDS011;8055;51.930;8.840;2023-06-19T12:01:29;3.47;;;2.30;;
15913;SDS011;8055;51.930;8.840;2023-06-19T12:03:56;2.90;;;2.20;;
15913;SDS011;8055;51.930;8.840;2023-06-19T12:06:21;7.75;;;2.50;;
15913;SDS011;8055;51.930;8.840;2023-06-19T12:08:47;2.70;;;2.33;;
15913;SDS011;8055;51.930;8.840;2023-06-19T12:11:12;6.13;;;2.28;;
15913;SDS011;8055;51.930;8.840;2023-06-19T12:13:39;6.55;;;2.30;;
15913;SDS011;8055;51.930;8.840;2023-06-19T12:16:05;3.20;;;1.75;;
15913;SDS011;8055;51.930;8.840;2023-06-19T12:18:31;3.28;;;1.77;;
15913;SDS011;8055;51.930;8.840;2023-06-19T12:20:56;1.92;;;1.70;;
15913;SDS011;8055;51.930;8.840;2023-06-19T12:23:22;7.05;;;1.70;;
15913;SDS011;8055;51.930;8.840;2023-06-19T12:25:47;1.95;;;1.70;;
15913;SDS011;8055;51.930;8.840;2023-06-19T12:28:12;2.95;;;1.50;;
15913;SDS011;8055;51.930;8.840;2023-06-19T12:30:43;2.92;;;1.85;;
15913;SDS011;8055;51.930;8.840;2023-06-19T12:33:09;2.33;;;2.00;;
15913;SDS011;8055;51.930;8.840;2023-06-19T12:35:34;3.95;;;2.10;;
15913;SDS011;8055;51.930;8.840;2023-06-19T12:38:00;2.35;;;1.80;;
15913;SDS011;8055;51.930;8.840;2023-06-19T12:40:26;10.70;;;1.90;;
15913;SDS011;8055;51.930;8.840;2023-06-19T12:42:51;3.13;;;2.10;;
15913;SDS011;8055;51.930;8.840;2023-06-19T12:45:16;2.35;;;1.73;;
15913;SDS011;8055;51.930;8.840;2023-06-19T12:47:42;2.00;;;1.75;;
15913;SDS011;8055;51.930;8.840;2023-06-19T12:50:07;2.28;;;1.98;;
15913;SDS011;8055;51.930;8.840;2023-06-19T12:52:33;4.03;;;2.17;;
15913;SDS011;8055;51.930;8.840;2023-06-19T12:54:58;2.58;;;2.00;;
15913;SDS011;8055;51.930;8.840;2023-06-19T12:57:26;4.10;;;2.10;;
15913;SDS011;8055;51.930;8.840;2023-06-19T12:59:51;2.33;;;2.10;;
15913;SDS011;8055;51.930;8.840;2023-06-19T13:02:17;2.88;;;1.90;;
15913;SDS011;8055;51.930;8.840;2023-06-19T13:04:42;4.97;;;2.05;;
15913;SDS011;8055;51.930;8.840;2023-06-19T13:07:08;2.10;;;1.90;;
15913;SDS011;8055;51.930;8.840;2023-06-19T13:09:33;3.88;;;2.53;;
15913;SDS011;8055;51.930;8.840;2023-06-19T13:12:00;2.50;;;2.30;;
15913;SDS011;8055;51.930;8.840;2023-06-19T13:14:26;5.85;;;2.40;;
15913;SDS011;8055;51.930;8.840;2023-06-19T13:16:52;3.97;;;2.53;;
15913;SDS011;8055;51.930;8.840;2023-06-19T13:19:17;2.60;;;2.05;;
15913;SDS011;8055;51.930;8.840;2023-06-19T13:21:43;4.72;;;2.10;;
15913;SDS011;8055;51.930;8.840;2023-06-19T13:24:08;2.90;;;2.45;;
15913;SDS011;8055;51.930;8.840;2023-06-19T13:26:34;2.28;;;2.15;;
15913;SDS011;8055;51.930;8.840;2023-06-19T13:28:59;4.35;;;2.40;;
15913;SDS011;8055;51.930;8.840;2023-06-19T13:31:26;6.15;;;2.63;;
15913;SDS011;8055;51.930;8.840;2023-06-19T13:33:51;3.17;;;2.40;;
15913;SDS011;8055;51.930;8.840;2023-06-19T13:36:17;3.67;;;2.60;;
15913;SDS011;8055;51.930;8.840;2023-06-19T13:38:44;5.25;;;2.63;;
15913;SDS011;8055;51.930;8.840;2023-06-19T13:41:10;6.15;;;2.40;;
15913;SDS011;8055;51.930;8.840;2023-06-19T13:43:36;4.80;;;2.70;;
15913;SDS011;8055;51.930;8.840;2023-06-19T13:46:05;2.70;;;2.33;;
15913;SDS011;8055;51.930;8.840;2023-06-19T13:48:31;3.03;;;2.70;;
15913;SDS011;8055;51.930;8.840;2023-06-19T13:50:56;3.40;;;2.20;;
15913;SDS011;8055;51.930;8.840;2023-06-19T13:53:23;5.85;;;2.35;;
15913;SDS011;8055;51.930;8.840;2023-06-19T13:55:49;3.45;;;2.70;;
15913;SDS011;8055;51.930;8.840;2023-06-19T13:58:14;4.50;;;2.38;;
15913;SDS011;8055;51.930;8.840;2023-06-19T14:00:40;7.03;;;2.60;;
15913;SDS011;8055;51.930;8.840;2023-06-19T14:03:05;3.25;;;2.47;;
15913;SDS011;8055;51.930;8.840;2023-06-19T14:05:32;4.22;;;2.80;;
15913;SDS011;8055;51.930;8.840;2023-06-19T14:07:58;5.55;;;2.42;;
15913;SDS011;8055;51.930;8.840;2023-06-19T14:10:24;5.95;;;2.33;;
15913;SDS011;8055;51.930;8.840;2023-06-19T14:12:49;3.08;;;2.28;;
15913;SDS011;8055;51.930;8.840;2023-06-19T14:15:14;3.13;;;2.20;;
15913;SDS011;8055;51.930;8.840;2023-06-19T14:17:40;4.28;;;1.92;;
15913;SDS011;8055;51.930;8.840;2023-06-19T14:20:06;2.42;;;2.17;;
15913;SDS011;8055;51.930;8.840;2023-06-19T14:22:34;9.82;;;2.40;;
15913;SDS011;8055;51.930;8.840;2023-06-19T14:24:59;3.22;;;2.20;;
15913;SDS011;8055;51.930;8.840;2023-06-19T14:27:27;2.10;;;1.90;;
15913;SDS011;8055;51.930;8.840;2023-06-19T14:29:55;4.15;;;2.15;;
15913;SDS011;8055;51.930;8.840;2023-06-19T14:32:21;3.00;;;2.35;;
15913;SDS011;8055;51.930;8.840;2023-06-19T14:34:49;2.78;;;2.10;;
15913;SDS011;8055;51.930;8.840;2023-06-19T14:37:14;2.45;;;2.13;;
15913;SDS011;8055;51.930;8.840;2023-06-19T14:39:40;5.80;;;2.00;;
15913;SDS011;8055;51.930;8.840;2023-06-19T14:42:05;2.97;;;2.33;;
15913;SDS011;8055;51.930;8.840;2023-06-19T14:44:31;3.15;;;2.00;;
15913;SDS011;8055;51.930;8.840;2023-06-19T14:46:57;4.20;;;2.17;;
15913;SDS011;8055;51.930;8.840;2023-06-19T14:49:23;5.60;;;2.13;;
15913;SDS011;8055;51.930;8.840;2023-06-19T14:51:49;2.35;;;2.08;;
15913;SDS011;8055;51.930;8.840;2023-06-19T14:54:14;7.43;;;1.95;;
15913;SDS011;8055;51.930;8.840;2023-06-19T14:56:42;4.18;;;2.15;;